createdAt,value
2023-05-04T00:04:25.098Z,10.21
2023-05-04T00:09:27.911Z,10.32
2023-05-04T00:14:30.654Z,10.05
2023-05-04T00:19:35.169Z,10.25
2023-05-04T00:24:38.669Z,10.27
2023-05-04T00:29:42.487Z,10.26
2023-05-04T00:34:46.581Z,10.37
2023-05-04T00:39:49.362Z,10.60
2023-05-04T00:44:52.181Z,10.48
2023-05-04T00:49:56.589Z,10.51
2023-05-04T00:55:03.227Z,10.45
2023-05-04T01:00:08.494Z,10.69
2023-05-04T01:05:13.450Z,10.70
2023-05-04T01:10:21.010Z,10.64
2023-05-04T01:15:24.273Z,10.67
2023-05-04T01:20:28.512Z,10.49
2023-05-04T01:25:36.888Z,10.39
2023-05-04T01:30:44.674Z,10.34
2023-05-04T01:35:47.963Z,10.27
2023-05-04T01:40:52.125Z,10.32
2023-05-04T01:45:54.961Z,10.23
2023-05-04T01:50:57.868Z,10.11
2023-05-04T01:56:01.970Z,10.31
2023-05-04T02:01:05.119Z,10.33
2023-05-04T02:06:08.472Z,10.37
2023-05-04T02:11:14.615Z,10.42
2023-05-04T02:16:17.521Z,10.40
2023-05-04T02:21:20.688Z,10.32
2023-05-04T02:26:25.036Z,10.33
2023-05-04T02:31:27.834Z,10.41
2023-05-04T02:36:30.725Z,10.45
2023-05-04T02:41:34.923Z,10.44
2023-05-04T02:46:37.664Z,10.29
2023-05-04T02:51:40.498Z,10.06
2023-05-04T02:56:45.157Z,10.19
2023-05-04T03:01:48.570Z,10.16
2023-05-04T03:06:51.464Z,10.04
2023-05-04T03:11:56.174Z,10.00
2023-05-04T03:16:59.425Z,9.83
2023-05-04T03:22:02.624Z,10.05
2023-05-04T03:27:07.491Z,9.99
2023-05-04T03:32:13.219Z,9.97
2023-05-04T03:37:16.977Z,9.98
2023-05-04T03:42:21.314Z,9.91
2023-05-04T03:47:24.202Z,9.88
2023-05-04T03:52:27.112Z,10.04
2023-05-04T03:57:31.572Z,10.00
2023-05-04T04:02:37.358Z,10.15
2023-05-04T04:07:41.773Z,10.15
2023-05-04T04:12:48.261Z,10.34
2023-05-04T04:17:51.096Z,10.55
2023-05-04T04:22:53.973Z,10.75
2023-05-04T04:27:58.613Z,10.78
2023-05-04T04:33:02.234Z,10.74
2023-05-04T04:38:22.554Z,10.66
2023-05-04T04:43:26.843Z,10.66
2023-05-04T04:48:29.784Z,10.98
2023-05-04T04:53:33.648Z,11.16
2023-05-04T04:58:37.909Z,11.33
2023-05-04T05:03:40.691Z,11.39
2023-05-04T05:08:43.910Z,11.53
2023-05-04T05:13:48.171Z,11.12
2023-05-04T05:18:51.041Z,11.27
2023-05-04T05:23:53.770Z,11.19
2023-05-04T05:28:57.950Z,10.99
2023-05-04T05:34:00.894Z,11.02
2023-05-04T05:39:03.690Z,11.16
2023-05-04T05:44:08.277Z,11.17
2023-05-04T05:49:11.471Z,11.75
2023-05-04T05:54:14.276Z,12.08
2023-05-04T05:59:18.418Z,13.05
2023-05-04T06:04:21.166Z,14.01
2023-05-04T06:09:23.997Z,14.40
2023-05-04T06:14:28.107Z,14.46
2023-05-04T06:19:31.618Z,14.84
2023-05-04T06:24:34.409Z,14.55
2023-05-04T06:29:40.695Z,14.53
2023-05-04T06:34:45.424Z,14.13
2023-05-04T06:39:48.573Z,15.29
2023-05-04T06:44:53.238Z,15.81
2023-05-04T06:49:56.071Z,16.38
2023-05-04T06:55:00.029Z,16.70
2023-05-04T07:00:05.322Z,17.44
2023-05-04T07:05:09.035Z,16.86
2023-05-04T07:10:12.165Z,17.59
2023-05-04T07:15:16.717Z,18.80
2023-05-04T07:20:22.863Z,20.27
2023-05-04T07:25:28.063Z,19.13
2023-05-04T07:30:32.344Z,18.55
2023-05-04T07:35:35.124Z,18.69
2023-05-04T07:40:37.889Z,18.74
2023-05-04T07:45:42.282Z,20.86
2023-05-04T07:50:45.242Z,21.84
2023-05-04T07:55:48.295Z,20.58
2023-05-04T08:00:52.601Z,19.63
2023-05-04T08:05:55.737Z,20.09
2023-05-04T08:11:11.628Z,19.56
2023-05-04T08:16:17.238Z,18.98
2023-05-04T08:21:20.950Z,17.21
2023-05-04T08:26:24.416Z,16.77
2023-05-04T08:31:28.645Z,17.00
2023-05-04T08:36:31.759Z,17.31
2023-05-04T08:41:34.692Z,17.30
2023-05-04T08:46:38.966Z,16.81
2023-05-04T08:51:43.679Z,17.81
2023-05-04T08:56:47.593Z,17.74
2023-05-04T09:01:57.040Z,17.72
2023-05-04T09:06:59.902Z,17.20
2023-05-04T09:12:02.724Z,17.03
2023-05-04T09:17:16.355Z,17.41
2023-05-04T09:22:20.378Z,17.35
2023-05-04T09:27:23.398Z,16.80
2023-05-04T09:32:28.939Z,16.86
2023-05-04T09:37:31.783Z,17.34
2023-05-04T09:42:34.521Z,18.08
2023-05-04T09:47:39.949Z,17.78
2023-05-04T09:52:44.009Z,18.04
2023-05-04T09:57:48.328Z,18.79
2023-05-04T10:02:53.254Z,19.46
2023-05-04T10:08:00.101Z,18.69
2023-05-04T10:13:03.235Z,19.75
2023-05-04T10:18:19.537Z,19.34
2023-05-04T10:23:49.289Z,18.92
2023-05-04T10:29:02.206Z,18.62
2023-05-04T10:34:06.685Z,17.84
2023-05-04T10:39:19.723Z,17.91
2023-05-04T10:44:22.471Z,18.09
2023-05-04T10:49:26.868Z,18.08
2023-05-04T10:54:29.749Z,18.55
2023-05-04T10:59:34.245Z,17.93
2023-05-04T11:04:40.322Z,17.90
2023-05-04T11:09:44.386Z,18.82
2023-05-04T11:14:47.144Z,19.17
2023-05-04T11:19:53.002Z,19.52
2023-05-04T11:24:56.338Z,18.85
2023-05-04T11:30:00.366Z,18.61
2023-05-04T11:35:06.391Z,18.77
2023-05-04T11:40:11.825Z,18.78
2023-05-04T11:45:16.986Z,19.79
2023-05-04T11:50:22.221Z,20.02
2023-05-04T11:55:30.481Z,19.63
2023-05-04T12:00:41.561Z,19.12
2023-05-04T12:05:49.329Z,19.07
2023-05-04T12:10:52.108Z,19.37
2023-05-04T12:15:54.963Z,19.67
2023-05-04T12:21:08.898Z,19.63
2023-05-04T12:26:13.251Z,19.64
2023-05-04T12:31:16.148Z,19.66
2023-05-04T12:36:20.553Z,19.64
2023-05-04T12:41:23.372Z,19.78
2023-05-04T12:46:26.168Z,19.27
2023-05-04T12:51:32.064Z,19.97
2023-05-04T12:56:35.063Z,20.23
2023-05-04T13:01:37.891Z,20.45
2023-05-04T13:06:43.841Z,19.63
2023-05-04T13:11:47.547Z,19.50
2023-05-04T13:16:51.183Z,20.18
2023-05-04T13:21:55.923Z,19.94
2023-05-04T13:26:59.382Z,20.58
2023-05-04T13:32:02.746Z,20.06
2023-05-04T13:37:07.288Z,19.70
2023-05-04T13:42:10.123Z,19.14
2023-05-04T13:47:13.684Z,19.28
2023-05-04T13:52:17.879Z,18.96
2023-05-04T13:57:20.581Z,19.05
2023-05-04T14:02:23.601Z,19.07
2023-05-04T14:07:28.006Z,19.12
2023-05-04T14:12:31.829Z,20.08
2023-05-04T14:17:34.732Z,20.22
2023-05-04T14:22:41.085Z,20.43
2023-05-04T14:27:44.291Z,19.63
2023-05-04T14:32:47.263Z,19.67
2023-05-04T14:37:51.460Z,20.55
2023-05-04T14:42:54.202Z,20.57
2023-05-04T14:47:57.044Z,20.02
2023-05-04T14:53:01.180Z,19.92
2023-05-04T14:58:03.909Z,20.15
2023-05-04T15:03:07.257Z,20.57
2023-05-04T15:08:11.438Z,20.27
2023-05-04T15:13:15.838Z,20.09
2023-05-04T15:18:18.849Z,20.12
2023-05-04T15:23:22.959Z,20.09
2023-05-04T15:28:26.152Z,19.64
2023-05-04T15:33:28.915Z,19.60
2023-05-04T15:38:33.086Z,19.96
2023-05-04T15:43:36.142Z,20.29
2023-05-04T15:48:38.997Z,19.88
2023-05-04T15:53:43.196Z,20.27
2023-05-04T15:58:46.260Z,19.66
2023-05-04T16:03:49.134Z,19.67
2023-05-04T16:08:53.366Z,19.81
2023-05-04T16:13:56.699Z,19.73
2023-05-04T16:18:59.577Z,19.86
2023-05-04T16:24:03.702Z,19.31
2023-05-04T16:29:06.783Z,19.88
2023-05-04T16:34:09.564Z,19.36
2023-05-04T16:39:14.642Z,19.12
2023-05-04T16:44:17.584Z,18.67
2023-05-04T16:49:21.392Z,18.23
2023-05-04T16:54:26.064Z,17.89
2023-05-04T16:59:29.311Z,17.95
2023-05-04T17:04:32.334Z,17.65
2023-05-04T17:09:36.787Z,17.77
2023-05-04T17:14:39.582Z,17.51
2023-05-04T17:19:42.436Z,17.65
2023-05-04T17:24:46.613Z,17.66
2023-05-04T17:29:49.456Z,17.05
2023-05-04T17:34:52.297Z,16.98
2023-05-04T17:39:56.999Z,17.08
2023-05-04T17:44:59.912Z,16.64
2023-05-04T17:50:04.610Z,17.01
2023-05-04T17:55:09.871Z,16.74
2023-05-04T18:00:14.333Z,15.99
2023-05-04T18:05:17.524Z,16.59
2023-05-04T18:10:21.950Z,16.55
2023-05-04T18:15:25.099Z,16.02
2023-05-04T18:20:28.574Z,15.93
2023-05-04T18:26:00.386Z,15.36
2023-05-04T18:31:33.406Z,15.35
2023-05-04T18:36:40.754Z,15.16
2023-05-04T18:41:46.156Z,15.28
2023-05-04T18:46:52.762Z,15.07
2023-05-04T18:52:06.291Z,14.65
2023-05-04T18:57:14.514Z,14.64
2023-05-04T19:02:17.560Z,14.62
2023-05-04T19:07:20.477Z,14.57
2023-05-04T19:12:24.939Z,14.03
2023-05-04T19:17:28.062Z,14.18
2023-05-04T19:22:31.938Z,13.96
2023-05-04T19:27:36.371Z,13.91
2023-05-04T19:32:39.589Z,14.10
2023-05-04T19:37:42.770Z,13.98
2023-05-04T19:43:00.653Z,13.92
2023-05-04T19:48:06.577Z,14.10
2023-05-04T19:53:09.530Z,13.86
2023-05-04T19:58:16.464Z,13.72
2023-05-04T20:03:22.534Z,13.85
2023-05-04T20:08:26.844Z,13.83
2023-05-04T20:13:31.172Z,13.93
2023-05-04T20:18:34.205Z,13.90
2023-05-04T20:23:37.268Z,13.72
2023-05-04T20:28:41.463Z,13.48
2023-05-04T20:33:44.443Z,13.11
2023-05-04T20:38:50.480Z,13.46
2023-05-04T20:43:54.653Z,13.14
2023-05-04T20:49:02.800Z,13.31
2023-05-04T20:54:08.594Z,13.32
2023-05-04T20:59:12.773Z,13.24
2023-05-04T21:04:17.549Z,13.19
2023-05-04T21:09:21.554Z,13.04
2023-05-04T21:14:25.792Z,13.23
2023-05-04T21:19:29.331Z,13.25
2023-05-04T21:24:33.125Z,13.19
2023-05-04T21:29:38.309Z,13.74
2023-05-04T21:34:41.142Z,13.44
2023-05-04T21:39:43.912Z,13.51
2023-05-04T21:44:48.012Z,13.26
2023-05-04T21:49:51.560Z,13.25
2023-05-04T21:54:54.284Z,13.01
2023-05-04T21:59:58.469Z,13.32
2023-05-04T22:05:01.228Z,13.39
2023-05-04T22:10:04.303Z,12.73
2023-05-04T22:15:10.602Z,12.74
2023-05-04T22:20:14.230Z,12.72
2023-05-04T22:25:18.422Z,12.57
2023-05-04T22:30:23.025Z,12.84
2023-05-04T22:35:25.778Z,12.95
2023-05-04T22:40:28.527Z,12.64
2023-05-04T22:45:35.658Z,12.36
2023-05-04T22:50:39.034Z,12.51
2023-05-04T22:55:42.142Z,12.48
2023-05-04T23:00:47.881Z,12.53
2023-05-04T23:05:50.623Z,12.47
2023-05-04T23:10:53.479Z,12.59
2023-05-04T23:15:57.755Z,12.40
2023-05-04T23:21:00.550Z,12.56
2023-05-04T23:26:03.262Z,12.48
2023-05-04T23:31:07.494Z,12.66
2023-05-04T23:36:10.573Z,12.47
2023-05-04T23:41:13.357Z,12.63
2023-05-04T23:46:17.552Z,12.52
2023-05-04T23:51:21.200Z,12.46
2023-05-04T23:56:24.036Z,12.53
